createdAt,value
2022-10-21T00:01:46.168Z,98
2022-10-21T00:03:47.533Z,98
2022-10-21T00:05:49.136Z,98
2022-10-21T00:09:51.528Z,95
2022-10-21T00:11:53.250Z,95
2022-10-21T00:13:54.530Z,95
2022-10-21T00:15:56.030Z,95
2022-10-21T00:19:59.761Z,95
2022-10-21T00:22:01.431Z,95
2022-10-21T00:24:02.587Z,95
2022-10-21T00:26:03.928Z,95
2022-10-21T00:28:04.929Z,95
2022-10-21T00:30:06.406Z,95
2022-10-21T00:32:07.431Z,95
2022-10-21T00:34:08.308Z,95
2022-10-21T00:36:09.645Z,95
2022-10-21T00:38:10.801Z,95
2022-10-21T00:40:12.512Z,95
2022-10-21T00:42:13.809Z,93
2022-10-21T00:44:14.995Z,87
2022-10-21T00:46:16.160Z,87
2022-10-21T00:48:17.868Z,87
2022-10-21T00:52:20.440Z,87
2022-10-21T00:54:21.494Z,87
2022-10-21T00:56:22.784Z,87
2022-10-21T00:58:24.393Z,87
2022-10-21T01:02:26.864Z,87
2022-10-21T01:04:28.672Z,87
2022-10-21T01:06:29.605Z,87
2022-10-21T01:08:30.990Z,87
2022-10-21T01:12:33.233Z,87
2022-10-21T01:14:35.081Z,87
2022-10-21T01:18:37.937Z,23
2022-10-21T01:22:41.017Z,346
2022-10-21T01:24:41.957Z,346
2022-10-21T01:28:44.017Z,344
2022-10-21T01:30:45.051Z,344
2022-10-21T01:32:46.225Z,344
2022-10-21T01:34:47.818Z,344
2022-10-21T01:38:51.014Z,347
2022-10-21T01:40:52.283Z,347
2022-10-21T01:42:53.232Z,347
2022-10-21T01:44:54.490Z,347
2022-10-21T01:46:55.525Z,347
2022-10-21T01:50:58.332Z,347
2022-10-21T01:53:00.232Z,347
2022-10-21T01:55:01.841Z,347
2022-10-21T01:57:03.496Z,347
2022-10-21T02:01:06.081Z,347
2022-10-21T02:03:07.577Z,347
2022-10-21T02:05:09.269Z,347
2022-10-21T02:07:10.152Z,347
2022-10-21T02:09:11.390Z,347
2022-10-21T02:11:12.801Z,347
2022-10-21T02:13:14.349Z,347
2022-10-21T02:15:16.168Z,347
2022-10-21T02:17:17.463Z,347
2022-10-21T02:19:18.918Z,347
2022-10-21T02:21:20.235Z,347
2022-10-21T02:23:21.305Z,347
2022-10-21T02:25:22.184Z,347
2022-10-21T02:27:23.580Z,347
2022-10-21T02:29:24.995Z,347
2022-10-21T02:33:28.611Z,347
2022-10-21T02:35:30.166Z,347
2022-10-21T02:39:32.905Z,347
2022-10-21T02:43:34.860Z,347
2022-10-21T02:45:36.645Z,347
2022-10-21T02:47:38.416Z,347
2022-10-21T02:49:38.998Z,347
2022-10-21T02:53:42.152Z,347
2022-10-21T02:55:43.424Z,347
2022-10-21T02:57:45.266Z,347
2022-10-21T02:59:46.624Z,347
2022-10-21T03:01:47.596Z,347
2022-10-21T03:03:49.246Z,347
2022-10-21T03:05:51.053Z,347
2022-10-21T03:07:52.725Z,347
2022-10-21T03:09:54.429Z,347
2022-10-21T03:11:55.760Z,347
2022-10-21T03:15:58.105Z,347
2022-10-21T03:17:59.618Z,347
2022-10-21T03:20:00.815Z,347
2022-10-21T03:22:02.146Z,347
2022-10-21T03:24:03.880Z,347
2022-10-21T03:26:05.611Z,347
2022-10-21T03:28:06.674Z,347
2022-10-21T03:32:09.515Z,347
2022-10-21T03:36:12.685Z,347
2022-10-21T03:38:14.520Z,347
2022-10-21T03:40:16.145Z,347
2022-10-21T03:40:59.978Z,347
2022-10-21T03:43:01.634Z,347
2022-10-21T03:45:03.275Z,347
2022-10-21T03:47:04.349Z,347
2022-10-21T03:49:07.641Z,347
2022-10-21T03:51:06.942Z,347
2022-10-21T03:53:13.925Z,347
2022-10-21T03:57:11.453Z,347
2022-10-21T03:59:13.249Z,347
2022-10-21T04:03:16.106Z,347
2022-10-21T04:05:17.661Z,347
2022-10-21T04:09:19.882Z,347
2022-10-21T04:13:23.071Z,347
2022-10-21T04:15:24.421Z,347
2022-10-21T04:19:27.611Z,347
2022-10-21T04:23:30.299Z,347
2022-10-21T04:25:31.346Z,347
2022-10-21T04:27:32.940Z,347
2022-10-21T04:29:34.698Z,347
2022-10-21T04:31:35.957Z,347
2022-10-21T04:33:37.229Z,347
2022-10-21T04:35:39.109Z,347
2022-10-21T04:37:40.908Z,347
2022-10-21T04:39:42.194Z,347
2022-10-21T04:41:43.376Z,347
2022-10-21T04:43:44.978Z,347
2022-10-21T04:45:46.410Z,347
2022-10-21T04:47:47.714Z,347
2022-10-21T04:51:50.871Z,347
2022-10-21T04:53:52.009Z,347
2022-10-21T04:55:53.334Z,347
2022-10-21T04:57:54.513Z,347
2022-10-21T05:01:57.378Z,347
2022-10-21T05:03:58.462Z,347
2022-10-21T05:05:59.864Z,347
2022-10-21T05:08:00.787Z,347
2022-10-21T05:10:02.616Z,347
2022-10-21T05:12:04.004Z,347
2022-10-21T05:14:04.995Z,347
2022-10-21T05:16:06.540Z,347
2022-10-21T05:18:07.723Z,347
2022-10-21T05:22:10.739Z,347
2022-10-21T05:24:12.602Z,347
2022-10-21T05:26:13.645Z,347
2022-10-21T05:28:14.607Z,347
2022-10-21T05:30:16.177Z,347
2022-10-21T05:34:18.389Z,347
2022-10-21T05:36:20.549Z,347
2022-10-21T05:38:20.499Z,347
2022-10-21T05:40:22.083Z,347
2022-10-21T05:44:25.185Z,347
2022-10-21T05:46:26.461Z,347
2022-10-21T05:48:28.125Z,347
2022-10-21T05:50:29.337Z,347
2022-10-21T05:54:32.544Z,347
2022-10-21T05:56:33.682Z,347
2022-10-21T06:00:36.525Z,347
2022-10-21T06:02:38.564Z,347
2022-10-21T06:04:40.065Z,347
2022-10-21T06:06:41.795Z,347
2022-10-21T06:08:43.312Z,347
2022-10-21T06:10:44.591Z,346
2022-10-21T06:12:45.991Z,346
2022-10-21T06:14:46.950Z,346
2022-10-21T06:16:48.414Z,346
2022-10-21T06:22:52.096Z,346
2022-10-21T06:24:53.994Z,346
2022-10-21T06:26:55.670Z,346
2022-10-21T06:28:57.461Z,346
2022-10-21T06:33:00.582Z,346
2022-10-21T06:37:03.013Z,347
2022-10-21T06:39:04.796Z,346
2022-10-21T06:43:07.524Z,346
2022-10-21T06:45:08.580Z,346
2022-10-21T06:47:10.197Z,346
2022-10-21T06:49:12.308Z,346
2022-10-21T06:51:13.753Z,346
2022-10-21T06:53:14.964Z,346
2022-10-21T06:55:16.490Z,347
2022-10-21T06:59:18.950Z,346
2022-10-21T07:01:27.206Z,346
2022-10-21T07:03:21.846Z,346
2022-10-21T07:05:22.861Z,346
2022-10-21T07:07:24.103Z,346
2022-10-21T07:09:26.024Z,347
2022-10-21T07:11:27.835Z,347
2022-10-21T07:15:30.721Z,347
2022-10-21T07:17:32.098Z,347
2022-10-21T07:21:34.947Z,347
2022-10-21T07:25:37.041Z,346
2022-10-21T07:27:38.413Z,347
2022-10-21T07:29:39.410Z,347
2022-10-21T07:31:41.048Z,346
2022-10-21T07:35:43.570Z,346
2022-10-21T07:37:44.554Z,343
2022-10-21T07:41:46.941Z,343
2022-10-21T07:43:48.394Z,343
2022-10-21T07:45:49.398Z,343
2022-10-21T07:49:51.949Z,343
2022-10-21T07:51:53.617Z,343
2022-10-21T07:53:54.591Z,343
2022-10-21T07:55:56.009Z,343
2022-10-21T07:57:57.569Z,343
2022-10-21T07:59:58.463Z,343
2022-10-21T08:01:59.602Z,343
2022-10-21T08:04:00.811Z,345
2022-10-21T08:06:02.057Z,345
2022-10-21T08:08:03.279Z,7
2022-10-21T08:10:05.091Z,187
2022-10-21T08:12:08.246Z,140
2022-10-21T08:14:07.293Z,139
2022-10-21T08:16:08.669Z,139
2022-10-21T08:18:10.349Z,139
2022-10-21T08:20:11.429Z,139
2022-10-21T08:22:12.872Z,139
2022-10-21T08:26:15.840Z,139
2022-10-21T08:28:17.362Z,139
2022-10-21T08:32:20.396Z,139
2022-10-21T08:36:23.233Z,139
2022-10-21T08:38:24.210Z,139
2022-10-21T08:42:27.406Z,141
2022-10-21T08:44:28.957Z,141
2022-10-21T08:46:29.984Z,141
2022-10-21T08:48:30.867Z,140
2022-10-21T08:52:33.866Z,140
2022-10-21T08:56:36.933Z,141
2022-10-21T08:58:38.441Z,141
2022-10-21T09:02:41.520Z,141
2022-10-21T09:04:42.684Z,141
2022-10-21T09:06:43.829Z,141
2022-10-21T09:08:45.264Z,141
2022-10-21T09:12:47.525Z,141
2022-10-21T09:14:49.493Z,141
2022-10-21T09:18:52.602Z,163
2022-10-21T09:20:55.082Z,163
2022-10-21T09:24:57.263Z,163
2022-10-21T09:26:58.262Z,162
2022-10-21T09:31:01.149Z,162
2022-10-21T09:33:02.856Z,164
2022-10-21T09:35:04.448Z,164
2022-10-21T09:39:07.917Z,164
2022-10-21T09:41:08.872Z,164
2022-10-21T09:45:12.035Z,164
2022-10-21T09:47:13.077Z,164
2022-10-21T09:49:41.801Z,164
2022-10-21T09:51:15.310Z,166
2022-10-21T09:55:18.335Z,188
2022-10-21T09:57:19.479Z,188
2022-10-21T09:59:20.419Z,203
2022-10-21T10:01:21.365Z,212
2022-10-21T10:03:22.610Z,228
2022-10-21T10:07:24.617Z,228
2022-10-21T10:09:26.183Z,228
2022-10-21T10:13:29.479Z,296
2022-10-21T10:17:32.683Z,222
2022-10-21T10:19:33.653Z,222
2022-10-21T10:21:34.888Z,222
2022-10-21T10:23:36.051Z,222
2022-10-21T10:25:37.065Z,222
2022-10-21T10:30:41.998Z,222
2022-10-21T10:32:43.043Z,222
2022-10-21T10:38:46.782Z,220
2022-10-21T10:40:47.800Z,188
2022-10-21T10:42:49.502Z,198
2022-10-21T10:44:50.669Z,185
2022-10-21T10:46:52.484Z,185
2022-10-21T10:48:53.508Z,175
2022-10-21T10:50:54.442Z,176
2022-10-21T10:52:55.843Z,182
2022-10-21T10:54:56.774Z,198
2022-10-21T10:56:58.424Z,181
2022-10-21T10:58:59.919Z,180
2022-10-21T11:01:01.772Z,195
2022-10-21T11:05:04.644Z,170
2022-10-21T11:07:06.474Z,169
2022-10-21T11:11:09.394Z,173
2022-10-21T11:13:11.093Z,180
2022-10-21T11:15:12.362Z,180
2022-10-21T11:17:14.008Z,180
2022-10-21T11:19:15.544Z,180
2022-10-21T11:23:18.461Z,183
2022-10-21T11:27:21.517Z,177
2022-10-21T11:31:23.960Z,191
2022-10-21T11:33:25.071Z,184
2022-10-21T11:37:28.423Z,180
2022-10-21T11:41:30.834Z,211
2022-10-21T11:43:32.205Z,199
2022-10-21T11:45:33.161Z,165
2022-10-21T11:49:37.271Z,176
2022-10-21T11:51:37.316Z,246
2022-10-21T11:53:38.708Z,184
2022-10-21T11:55:40.532Z,207
2022-10-21T11:57:41.654Z,215
2022-10-21T12:01:44.158Z,221
2022-10-21T12:03:45.682Z,210
2022-10-21T12:05:46.956Z,237
2022-10-21T12:09:49.661Z,237
2022-10-21T12:11:50.932Z,193
2022-10-21T12:13:52.491Z,192
2022-10-21T12:15:54.100Z,177
2022-10-21T12:19:56.348Z,179
2022-10-21T12:21:57.242Z,173
2022-10-21T12:23:58.621Z,233
2022-10-21T12:28:01.302Z,167
2022-10-21T12:30:02.862Z,185
2022-10-21T12:32:04.544Z,216
2022-10-21T12:34:05.778Z,224
2022-10-21T12:36:07.036Z,218
2022-10-21T12:38:08.349Z,267
2022-10-21T12:40:09.579Z,237
2022-10-21T12:42:10.815Z,257
2022-10-21T12:44:11.859Z,185
2022-10-21T12:46:12.906Z,184
2022-10-21T12:50:15.697Z,187
2022-10-21T12:52:17.172Z,176
2022-10-21T12:54:19.004Z,176
2022-10-21T12:58:22.199Z,237
2022-10-21T13:02:25.725Z,180
2022-10-21T13:04:27.445Z,180
2022-10-21T13:06:29.162Z,182
2022-10-21T13:08:30.728Z,206
2022-10-21T13:10:32.492Z,150
2022-10-21T13:12:34.121Z,203
2022-10-21T13:14:36.205Z,204
2022-10-21T13:16:36.798Z,173
2022-10-21T13:18:38.202Z,217
2022-10-21T13:20:39.865Z,221
2022-10-21T13:22:41.479Z,244
2022-10-21T13:24:42.878Z,196
2022-10-21T13:26:44.048Z,169
2022-10-21T13:28:45.227Z,223
2022-10-21T13:30:46.384Z,223
2022-10-21T13:34:49.103Z,184
2022-10-21T13:36:50.665Z,187
2022-10-21T13:38:52.367Z,188
2022-10-21T13:40:54.094Z,159
2022-10-21T13:42:54.918Z,159
2022-10-21T13:44:55.766Z,173
2022-10-21T13:46:57.338Z,176
2022-10-21T13:48:58.515Z,177
2022-10-21T13:50:59.670Z,176
2022-10-21T13:53:01.435Z,239
2022-10-21T13:55:02.705Z,239
2022-10-21T13:57:04.393Z,239
2022-10-21T14:01:06.409Z,226
2022-10-21T14:03:07.742Z,226
2022-10-21T14:05:08.622Z,225
2022-10-21T14:07:09.542Z,179
2022-10-21T14:11:12.074Z,233
2022-10-21T14:13:13.465Z,232
2022-10-21T14:15:15.156Z,204
2022-10-21T14:17:16.827Z,203
2022-10-21T14:19:17.626Z,203
2022-10-21T14:21:18.557Z,168
2022-10-21T14:23:20.086Z,220
2022-10-21T14:25:21.234Z,191
2022-10-21T14:27:22.390Z,212
2022-10-21T14:29:23.639Z,206
2022-10-21T14:33:25.958Z,221
2022-10-21T14:35:26.990Z,221
2022-10-21T14:37:28.818Z,229
2022-10-21T14:39:30.638Z,230
2022-10-21T14:43:32.910Z,230
2022-10-21T14:45:33.801Z,192
2022-10-21T14:47:34.755Z,215
2022-10-21T14:49:35.991Z,215
2022-10-21T14:51:37.135Z,177
2022-10-21T14:53:38.639Z,180
2022-10-21T14:55:40.258Z,180
2022-10-21T14:57:41.673Z,180
2022-10-21T14:59:42.790Z,180
2022-10-21T15:01:43.805Z,180
2022-10-21T15:03:45.358Z,180
2022-10-21T15:05:49.152Z,179
2022-10-21T15:07:48.810Z,179
2022-10-21T15:09:49.715Z,179
2022-10-21T15:11:51.456Z,179
2022-10-21T15:15:54.705Z,181
2022-10-21T15:17:55.535Z,181
2022-10-21T15:21:58.104Z,181
2022-10-21T15:26:00.982Z,181
2022-10-21T15:28:01.891Z,180
2022-10-21T15:30:03.476Z,180
2022-10-21T15:32:05.035Z,180
2022-10-21T15:36:07.688Z,180
2022-10-21T15:38:09.059Z,180
2022-10-21T15:46:13.736Z,180
2022-10-21T15:48:15.307Z,180
2022-10-21T15:50:16.691Z,180
2022-10-21T15:52:18.106Z,180
2022-10-21T15:54:19.127Z,180
2022-10-21T15:56:20.558Z,180
2022-10-21T15:58:22.201Z,179
2022-10-21T16:00:23.691Z,179
2022-10-21T16:02:24.715Z,171
2022-10-21T16:04:25.787Z,171
2022-10-21T16:08:37.194Z,180
2022-10-21T16:10:30.184Z,180
2022-10-21T16:14:33.102Z,179
2022-10-21T16:18:35.783Z,179
2022-10-21T16:20:37.388Z,180
2022-10-21T16:24:40.189Z,180
2022-10-21T16:28:43.422Z,180
2022-10-21T16:30:44.327Z,180
2022-10-21T16:34:46.636Z,181
2022-10-21T16:36:47.990Z,181
2022-10-21T16:38:49.462Z,181
2022-10-21T16:40:51.122Z,181
2022-10-21T16:42:52.457Z,181
2022-10-21T16:44:53.954Z,181
2022-10-21T16:46:55.615Z,182
2022-10-21T16:48:57.340Z,182
2022-10-21T16:53:00.525Z,182
2022-10-21T16:55:02.244Z,181
2022-10-21T16:57:04.826Z,181
2022-10-21T16:59:05.253Z,181
2022-10-21T17:01:06.563Z,181
2022-10-21T17:03:07.598Z,181
2022-10-21T17:07:10.642Z,181
2022-10-21T17:09:12.283Z,181
2022-10-21T17:11:13.113Z,156
2022-10-21T17:11:56.874Z,157
2022-10-21T17:13:58.520Z,238
2022-10-21T17:15:59.761Z,238
2022-10-21T17:18:00.833Z,238
2022-10-21T17:20:01.928Z,238
2022-10-21T17:22:03.241Z,238
2022-10-21T17:24:04.625Z,238
2022-10-21T17:26:05.622Z,238
2022-10-21T17:28:07.455Z,238
2022-10-21T17:30:09.115Z,238
2022-10-21T17:34:12.249Z,238
2022-10-21T17:36:13.276Z,238
2022-10-21T17:38:14.222Z,238
2022-10-21T17:40:15.778Z,238
2022-10-21T17:44:18.497Z,147
2022-10-21T17:46:19.882Z,148
2022-10-21T17:50:22.034Z,148
2022-10-21T17:52:23.663Z,263
2022-10-21T17:54:26.595Z,263
2022-10-21T17:56:26.966Z,263
2022-10-21T17:58:28.329Z,263
2022-10-21T18:00:29.156Z,263
2022-10-21T18:06:33.503Z,263
2022-10-21T18:08:35.388Z,263
2022-10-21T18:10:36.285Z,263
2022-10-21T18:12:37.776Z,263
2022-10-21T18:16:39.904Z,263
2022-10-21T18:20:42.565Z,263
2022-10-21T18:22:44.415Z,263
2022-10-21T18:26:46.500Z,263
2022-10-21T18:28:47.504Z,263
2022-10-21T18:32:50.256Z,101
2022-10-21T18:38:53.865Z,101
2022-10-21T18:40:56.572Z,101
2022-10-21T18:44:58.562Z,101
2022-10-21T18:49:01.335Z,101
2022-10-21T18:51:02.219Z,101
2022-10-21T18:53:03.521Z,97
2022-10-21T18:57:06.498Z,97
2022-10-21T18:59:08.021Z,128
2022-10-21T19:01:09.900Z,128
2022-10-21T19:03:11.419Z,128
2022-10-21T19:05:12.474Z,128
2022-10-21T19:07:14.201Z,128
2022-10-21T19:09:15.976Z,128
2022-10-21T19:11:17.557Z,128
2022-10-21T19:15:19.699Z,128
2022-10-21T19:17:20.616Z,128
2022-10-21T19:21:23.003Z,128
2022-10-21T19:25:25.368Z,128
2022-10-21T19:27:27.039Z,128
2022-10-21T19:29:28.448Z,128
2022-10-21T19:31:29.529Z,128
2022-10-21T19:35:31.510Z,128
2022-10-21T19:37:32.750Z,128
2022-10-21T19:39:34.527Z,128
2022-10-21T19:41:36.397Z,128
2022-10-21T19:43:37.827Z,128
2022-10-21T19:45:39.202Z,128
2022-10-21T19:47:40.513Z,128
2022-10-21T19:49:41.568Z,128
2022-10-21T19:51:43.127Z,128
2022-10-21T19:53:44.925Z,128
2022-10-21T19:57:47.847Z,128
2022-10-21T19:59:49.374Z,128
2022-10-21T20:01:51.153Z,128
2022-10-21T20:03:52.375Z,128
2022-10-21T20:07:54.670Z,128
2022-10-21T20:09:55.840Z,128
2022-10-21T20:13:57.934Z,128
2022-10-21T20:18:00.093Z,128
2022-10-21T20:20:01.423Z,128
2022-10-21T20:22:03.165Z,128
2022-10-21T20:28:06.879Z,128
2022-10-21T20:30:08.383Z,128
2022-10-21T20:34:11.185Z,128
2022-10-21T20:36:12.396Z,128
2022-10-21T20:38:14.116Z,128
2022-10-21T20:40:15.746Z,128
2022-10-21T20:44:17.796Z,128
2022-10-21T20:46:18.999Z,128
2022-10-21T20:48:19.990Z,128
2022-10-21T20:50:21.901Z,128
2022-10-21T20:52:23.587Z,128
2022-10-21T20:56:26.106Z,128
2022-10-21T20:58:27.616Z,128
2022-10-21T21:02:30.603Z,128
2022-10-21T21:06:33.588Z,128
2022-10-21T21:08:35.167Z,128
2022-10-21T21:10:36.794Z,128
2022-10-21T21:12:37.840Z,128
2022-10-21T21:14:38.924Z,128
2022-10-21T21:16:40.658Z,128
2022-10-21T21:18:42.123Z,128
2022-10-21T21:20:43.738Z,128
2022-10-21T21:22:45.513Z,128
2022-10-21T21:24:46.702Z,128
2022-10-21T21:26:48.315Z,128
2022-10-21T21:28:49.611Z,128
2022-10-21T21:32:52.332Z,128
2022-10-21T21:34:53.671Z,128
2022-10-21T21:38:55.797Z,128
2022-10-21T21:40:57.357Z,128
2022-10-21T21:42:59.052Z,128
2022-10-21T21:45:00.092Z,128
2022-10-21T21:49:05.394Z,128
2022-10-21T21:51:03.493Z,128
2022-10-21T21:55:06.428Z,128
2022-10-21T21:59:09.888Z,128
2022-10-21T22:01:11.203Z,128
2022-10-21T22:03:12.124Z,127
2022-10-21T22:05:13.389Z,127
2022-10-21T22:09:16.248Z,127
2022-10-21T22:11:17.698Z,127
2022-10-21T22:15:43.164Z,127
2022-10-21T22:17:22.328Z,127
2022-10-21T22:19:23.788Z,127
2022-10-21T22:21:25.019Z,127
2022-10-21T22:23:27.117Z,127
2022-10-21T22:25:28.481Z,127
2022-10-21T22:27:30.105Z,127
2022-10-21T22:31:33.142Z,127
2022-10-21T22:33:34.575Z,127
2022-10-21T22:37:36.801Z,127
2022-10-21T22:41:39.190Z,127
2022-10-21T22:43:40.286Z,127
2022-10-21T22:47:43.014Z,127
2022-10-21T22:49:44.681Z,127
2022-10-21T22:51:46.026Z,127
2022-10-21T22:53:50.727Z,127
2022-10-21T22:55:48.683Z,127
2022-10-21T22:57:50.283Z,127
2022-10-21T22:59:53.394Z,127
2022-10-21T23:01:53.504Z,127
2022-10-21T23:03:54.490Z,127
2022-10-21T23:05:55.501Z,127
2022-10-21T23:07:56.773Z,127
2022-10-21T23:09:57.869Z,127
2022-10-21T23:11:59.370Z,127
2022-10-21T23:14:07.966Z,127
2022-10-21T23:16:01.704Z,127
2022-10-21T23:20:04.497Z,127
2022-10-21T23:22:06.239Z,127
2022-10-21T23:24:07.128Z,127
2022-10-21T23:26:08.434Z,127
2022-10-21T23:28:09.592Z,127
2022-10-21T23:30:10.754Z,127
2022-10-21T23:32:12.258Z,127
2022-10-21T23:36:15.803Z,127
2022-10-21T23:40:18.220Z,127
2022-10-21T23:42:19.329Z,127
2022-10-21T23:44:20.273Z,127
2022-10-21T23:46:21.370Z,127
2022-10-21T23:52:25.925Z,127
2022-10-21T23:54:27.638Z,127
2022-10-21T23:57:12.779Z,127
